This is the latest recevied weather packets stored in our database for station/object VK4RM-13. If no packets are shown the sender has not sent any weather packets the latest 10 day(s).
| Time | Temp. | Humidity | Pressure | Rain* | Wind** | Luminosity | Snow |
|---|---|---|---|---|---|---|---|
| 1778035596 | 24.44° C | 80% | 994.5 hPa | 0.25 mm | - | - | - |
| 1778034996 | 23.89° C | 84% | 994.6 hPa | 0.25 mm | - | - | - |
| 1778034396 | 23.89° C | 80% | 994.6 hPa | 0 mm | - | - | - |
| 1778033796 | 24.44° C | 79% | 994.6 hPa | 0 mm | - | - | - |
| 1778033196 | 25° C | 76% | 994.6 hPa | 0 mm | - | - | - |
| 1778032596 | 25.56° C | 73% | 994.6 hPa | 0 mm | - | - | - |
| 1778031996 | 25° C | 73% | 994.8 hPa | 0 mm | - | - | - |
| 1778031396 | 25.56° C | 73% | 995 hPa | 0 mm | - | - | - |
| 1778030797 | 25.56° C | 72% | 995.1 hPa | 0 mm | - | - | - |
| 1778030197 | 25° C | 73% | 995.1 hPa | 0 mm | - | - | - |
| 1778029597 | 25° C | 73% | 995.3 hPa | 0 mm | - | - | - |
| 1778028997 | 25° C | 73% | 995.4 hPa | 0 mm | - | - | - |
| 1778028396 | 25.56° C | 72% | 995.6 hPa | 0 mm | - | - | - |
| 1778027796 | 25.56° C | 72% | 995.7 hPa | 0 mm | - | - | - |
| 1778027196 | 25° C | 74% | 995.9 hPa | 0 mm | - | - | - |
| 1778026596 | 25° C | 74% | 995.9 hPa | 0 mm | - | - | - |
| 1778025997 | 25° C | 74% | 995.8 hPa | 0 mm | - | - | - |
| 1778025396 | 25° C | 74% | 996 hPa | 0 mm | - | - | - |
| 1778024797 | 25° C | 75% | 995.8 hPa | 0 mm | - | - | - |
| 1778024197 | 24.44° C | 75% | 995.9 hPa | 0 mm | - | - | - |
| 1778023597 | 24.44° C | 75% | 996 hPa | 0 mm | - | - | - |
| 1778022997 | 23.89° C | 77% | 995.9 hPa | 0 mm | - | - | - |
| 1778022397 | 23.89° C | 78% | 995.8 hPa | 0 mm | - | - | - |
| 1778021797 | 23.33° C | 80% | 995.8 hPa | 0 mm | - | - | - |
| 1778021197 | 22.78° C | 82% | 995.6 hPa | 0 mm | - | - | - |
* Rain latest hour (hover to see other rain measurements)
** Current wind speed in m/s (hover to see current wind gust speed)